Time;durP1;ratioP1;P1;durP2;ratioP2;P2;SDS_P1;SDS_P2;PMS_P1;PMS_P2;Temp;Humidity;BMP_temperature;BMP_pressure;BME280_temperature;BME280_humidity;BME280_pressure;Samples;Min_cycle;Max_cycle;Signal;HPM_P1;HPM_P2
2021/12/28 00:03:44;;;;;;;28.57;11.97;;;;;;;-6.23;90.42;100603.91;10542368;28;20254;-70
2021/12/28 00:08:48;;;;;;;31.00;12.73;;;;;;;-6.18;91.11;100589.91;10542230;28;20215;-65
2021/12/28 00:13:59;;;;;;;30.47;12.43;;;;;;;-6.19;90.99;100593.19;10542003;28;20212;-67
2021/12/28 00:19:06;;;;;;;28.40;12.00;;;;;;;-6.30;91.11;100595.09;10541948;28;20226;-64
2021/12/28 00:24:09;;;;;;;28.07;11.97;;;;;;;-6.36;90.87;100592.22;10541752;28;20220;-65
2021/12/28 00:29:13;;;;;;;28.37;12.03;;;;;;;-6.43;90.60;100581.63;10541300;28;20224;-68
2021/12/28 00:34:17;;;;;;;28.27;12.10;;;;;;;-6.45;90.71;100586.59;10541364;28;20223;-65
2021/12/28 00:39:20;;;;;;;29.73;11.80;;;;;;;-6.40;92.11;100585.22;10541114;28;20553;-65
2021/12/28 00:44:25;;;;;;;32.10;11.60;;;;;;;-6.52;92.14;100581.13;10544525;28;20215;-67
2021/12/28 00:49:28;;;;;;;25.43;11.47;;;;;;;-6.52;91.86;100576.91;10549003;28;20300;-67
2021/12/28 00:54:31;;;;;;;30.93;12.33;;;;;;;-6.62;92.96;100583.84;10548827;28;20538;-68
2021/12/28 00:59:36;;;;;;;32.17;13.57;;;;;;;-6.72;93.97;100584.94;10548591;28;20218;-65
2021/12/28 01:04:39;;;;;;;29.50;12.97;;;;;;;-6.66;92.99;100576.88;10548369;28;20225;-65
2021/12/28 01:09:43;;;;;;;29.50;12.53;;;;;;;-6.80;93.45;100575.16;10548441;28;20663;-70
2021/12/28 01:14:47;;;;;;;28.07;12.60;;;;;;;-6.85;94.58;100571.50;10548277;28;20203;-65
2021/12/28 01:19:51;;;;;;;28.57;12.33;;;;;;;-6.83;95.10;100573.31;10547943;28;20200;-67
2021/12/28 01:24:54;;;;;;;30.17;12.30;;;;;;;-6.99;95.36;100572.28;10547709;28;20631;-67
2021/12/28 01:29:59;;;;;;;32.93;12.53;;;;;;;-6.99;95.67;100559.69;10547446;28;20222;-66
2021/12/28 01:35:02;;;;;;;29.17;11.60;;;;;;;-6.90;95.80;100570.34;10547282;28;20198;-67
2021/12/28 01:40:08;;;;;;;28.57;11.17;;;;;;;-6.91;95.08;100564.41;10546948;28;20235;-67
2021/12/28 01:45:13;;;;;;;28.67;11.30;;;;;;;-6.94;94.68;100563.34;10546922;28;20202;-66
2021/12/28 01:50:16;;;;;;;33.30;11.77;;;;;;;-7.08;96.59;100556.59;10547017;28;20223;-65
2021/12/28 01:55:19;;;;;;;29.90;12.07;;;;;;;-7.11;96.83;100543.00;10546580;28;20217;-63
2021/12/28 02:00:26;;;;;;;32.77;12.37;;;;;;;-7.14;97.06;100552.91;10546101;28;20206;-67
2021/12/28 02:05:29;;;;;;;34.30;12.47;;;;;;;-6.98;97.08;100546.28;10546082;28;20187;-64
2021/12/28 02:10:33;;;;;;;30.63;12.10;;;;;;;-7.08;97.12;100543.97;10545560;28;20215;-66
2021/12/28 02:15:38;;;;;;;31.33;11.93;;;;;;;-7.00;98.07;100550.34;10545531;28;20215;-67
2021/12/28 02:20:44;;;;;;;28.67;12.07;;;;;;;-7.08;97.24;100552.41;10545285;28;20306;-64
2021/12/28 02:25:48;;;;;;;25.43;12.77;;;;;;;-7.27;98.99;100557.09;10542937;28;20227;-68
2021/12/28 02:30:56;;;;;;;29.40;12.10;;;;;;;-7.22;98.87;100548.16;10541763;28;20613;-70
2021/12/28 02:36:04;;;;;;;29.33;12.50;;;;;;;-7.25;99.48;100535.38;10541810;28;20229;-66
2021/12/28 02:41:09;;;;;;;32.67;13.37;;;;;;;-7.17;99.28;100539.25;10541206;28;20246;-65
2021/12/28 02:46:12;;;;;;;28.37;12.20;;;;;;;-7.15;99.18;100517.53;10541839;28;20211;-66
2021/12/28 02:51:17;;;;;;;32.07;11.57;;;;;;;-7.19;99.40;100508.91;10540967;28;20219;-62
2021/12/28 02:56:21;;;;;;;30.10;12.40;;;;;;;-7.13;99.64;100511.78;10541315;28;20299;-67
2021/12/28 03:01:28;;;;;;;28.67;12.70;;;;;;;-7.19;100.00;100505.50;10540886;28;20234;-65
2021/12/28 03:06:35;;;;;;;27.83;11.23;;;;;;;-7.33;100.00;100502.13;10539785;28;20215;-72
2021/12/28 03:11:38;;;;;;;27.87;11.90;;;;;;;-7.18;100.00;100487.94;10541001;28;20233;-66
2021/12/28 03:16:41;;;;;;;29.30;13.63;;;;;;;-7.15;100.00;100493.19;10540877;28;20219;-66
2021/12/28 03:21:47;;;;;;;26.63;11.47;;;;;;;-7.26;100.00;100498.34;10530769;28;20369;-64
2021/12/28 03:26:50;;;;;;;29.20;11.63;;;;;;;-7.25;100.00;100480.78;10542873;28;20216;-70
2021/12/28 03:31:53;;;;;;;28.47;12.27;;;;;;;-7.22;100.00;100480.13;10542838;28;20241;-68
2021/12/28 03:36:58;;;;;;;27.20;11.93;;;;;;;-7.37;100.00;100472.47;10542524;28;20299;-64
2021/12/28 03:42:02;;;;;;;27.60;11.90;;;;;;;-7.28;100.00;100475.56;10542408;28;20249;-68
2021/12/28 03:47:06;;;;;;;26.50;11.90;;;;;;;-7.20;100.00;100471.88;10509470;28;20216;-66
2021/12/28 03:52:11;;;;;;;30.77;12.20;;;;;;;-7.22;100.00;100472.56;10500475;28;20232;-69
2021/12/28 03:57:15;;;;;;;27.97;11.97;;;;;;;-7.28;100.00;100469.63;10500543;28;20223;-64
2021/12/28 04:02:18;;;;;;;27.97;12.37;;;;;;;-7.27;100.00;100468.88;10516692;28;20229;-68
2021/12/28 04:07:23;;;;;;;29.60;12.47;;;;;;;-7.23;100.00;100458.22;10541650;28;20677;-66
2021/12/28 04:12:28;;;;;;;29.07;11.60;;;;;;;-7.30;100.00;100448.53;10541959;28;20234;-69
2021/12/28 04:17:33;;;;;;;29.87;12.70;;;;;;;-7.20;100.00;100451.72;10544174;28;20215;-68
2021/12/28 04:22:38;;;;;;;28.33;11.60;;;;;;;-7.17;100.00;100444.34;10550007;28;20233;-67
2021/12/28 04:27:41;;;;;;;30.47;13.70;;;;;;;-7.15;100.00;100447.81;10549728;28;20229;-67
2021/12/28 04:32:45;;;;;;;27.50;12.20;;;;;;;-7.22;100.00;100450.75;10549827;28;20215;-65
2021/12/28 04:37:50;;;;;;;32.67;12.53;;;;;;;-7.31;100.00;100437.56;10540967;28;20226;-66
2021/12/28 04:42:53;;;;;;;33.67;12.37;;;;;;;-7.20;100.00;100439.13;10507224;28;20558;-69
2021/12/28 04:47:56;;;;;;;34.27;14.33;;;;;;;-7.29;100.00;100438.56;10506903;28;20216;-69
2021/12/28 04:53:07;;;;;;;28.43;10.53;;;;;;;-7.28;100.00;100434.34;10507084;28;20212;-68
2021/12/28 04:58:12;;;;;;;33.63;11.27;;;;;;;-7.23;100.00;100433.88;10506969;28;20227;-65
2021/12/28 05:03:17;;;;;;;38.87;12.93;;;;;;;-7.07;100.00;100434.81;10506931;28;20315;-69
2021/12/28 05:08:22;;;;;;;27.87;12.07;;;;;;;-7.18;100.00;100436.69;10506122;28;20672;-67
2021/12/28 05:13:25;;;;;;;34.80;13.47;;;;;;;-7.25;100.00;100435.41;10506132;28;20558;-65
2021/12/28 05:18:28;;;;;;;26.03;10.50;;;;;;;-7.19;100.00;100429.88;10505947;28;20234;-66
2021/12/28 05:23:33;;;;;;;31.40;13.17;;;;;;;-7.11;100.00;100439.66;10505632;28;20216;-69
2021/12/28 05:28:36;;;;;;;25.07;12.20;;;;;;;-7.09;100.00;100441.41;10504655;28;20523;-68
2021/12/28 05:33:40;;;;;;;30.13;12.27;;;;;;;-7.05;100.00;100433.22;10510957;28;20218;-70
2021/12/28 05:38:45;;;;;;;29.97;12.50;;;;;;;-6.93;100.00;100428.91;10505053;28;20256;-66
2021/12/28 05:43:48;;;;;;;33.73;13.27;;;;;;;-6.87;100.00;100432.69;10530594;28;20216;-68
2021/12/28 05:48:51;;;;;;;26.47;12.97;;;;;;;-6.91;100.00;100443.38;10546520;28;20227;-66
2021/12/28 05:53:56;;;;;;;27.93;13.43;;;;;;;-6.81;100.00;100440.59;10528916;28;20594;-66
2021/12/28 05:58:59;;;;;;;28.53;12.13;;;;;;;-6.69;100.00;100432.88;10504403;28;20226;-68
2021/12/28 06:04:03;;;;;;;32.73;12.90;;;;;;;-6.66;100.00;100438.97;10503939;28;20216;-67
2021/12/28 06:09:07;;;;;;;31.97;13.30;;;;;;;-6.46;100.00;100438.50;10504065;28;20234;-64
2021/12/28 06:14:10;;;;;;;31.10;13.47;;;;;;;-6.44;100.00;100451.19;10503802;28;20224;-69
2021/12/28 06:19:14;;;;;;;27.20;12.53;;;;;;;-6.35;100.00;100454.25;10503336;28;20224;-68
2021/12/28 06:24:19;;;;;;;30.27;13.60;;;;;;;-6.25;100.00;100464.09;10504948;28;20220;-68
2021/12/28 06:29:22;;;;;;;28.43;12.77;;;;;;;-6.31;100.00;100451.09;10544744;28;20233;-64
2021/12/28 06:34:26;;;;;;;31.23;13.83;;;;;;;-6.16;100.00;100440.22;10544656;28;20550;-67
2021/12/28 06:39:31;;;;;;;27.00;12.00;;;;;;;-6.13;100.00;100444.59;10544178;28;20318;-69
2021/12/28 06:44:35;;;;;;;28.43;13.87;;;;;;;-6.14;100.00;100437.78;10184542;27;10000269;-64
2021/12/28 06:49:38;;;;;;;30.03;12.20;;;;;;;-6.00;100.00;100432.75;10541073;28;20226;-66
2021/12/28 06:54:44;;;;;;;28.50;13.83;;;;;;;-5.92;100.00;100433.19;10540701;28;20219;-67
2021/12/28 06:59:47;;;;;;;26.80;12.63;;;;;;;-5.84;100.00;100423.47;10540982;28;20306;-66
2021/12/28 07:04:52;;;;;;;31.13;12.77;;;;;;;-5.66;100.00;100427.00;10540120;28;20791;-64
2021/12/28 07:09:57;;;;;;;36.80;17.07;;;;;;;-5.77;100.00;100439.03;10541072;28;20586;-67
2021/12/28 07:15:00;;;;;;;31.47;14.17;;;;;;;-5.62;100.00;100437.34;10539942;28;20582;-68
2021/12/28 07:20:04;;;;;;;35.88;16.70;;;;;;;-5.56;100.00;100437.69;10538778;28;20422;-66
2021/12/28 07:25:14;;;;;;;41.33;17.37;;;;;;;-5.47;100.00;100439.84;10540356;28;20216;-64
2021/12/28 07:30:17;;;;;;;28.47;13.90;;;;;;;-5.44;100.00;100440.00;10539363;28;20219;-64
2021/12/28 07:35:20;;;;;;;31.80;15.10;;;;;;;-5.28;100.00;100432.44;10539223;28;20207;-64
2021/12/28 07:40:25;;;;;;;29.03;13.63;;;;;;;-5.49;100.00;100437.22;10539442;28;20583;-67
2021/12/28 07:45:28;;;;;;;28.73;14.43;;;;;;;-5.46;100.00;100426.41;10538994;28;20235;-69
2021/12/28 07:50:32;;;;;;;28.70;13.97;;;;;;;-5.27;100.00;100414.81;10568366;28;20291;-65
2021/12/28 07:55:36;;;;;;;30.50;14.40;;;;;;;-5.01;100.00;100406.06;10577631;28;20223;-66
2021/12/28 08:00:40;;;;;;;24.90;12.13;;;;;;;-5.09;100.00;100409.88;10538796;28;20219;-68
2021/12/28 08:05:45;;;;;;;27.07;13.60;;;;;;;-5.14;100.00;100407.09;10539246;28;20230;-64
2021/12/28 08:10:49;;;;;;;28.20;13.27;;;;;;;-4.95;100.00;100398.78;10538514;28;20229;-66
2021/12/28 08:15:53;;;;;;;30.07;14.17;;;;;;;-4.96;100.00;100402.09;10538603;28;20211;-66
2021/12/28 08:20:56;;;;;;;31.27;13.20;;;;;;;-5.01;100.00;100393.41;10538549;28;20220;-70
2021/12/28 08:26:01;;;;;;;30.37;13.50;;;;;;;-4.90;100.00;100402.44;10538752;28;20237;-70
2021/12/28 08:31:04;;;;;;;26.27;12.77;;;;;;;-4.90;100.00;100405.81;10539095;28;20232;-64
2021/12/28 08:36:08;;;;;;;28.93;13.10;;;;;;;-4.73;100.00;100407.53;10537436;28;20708;-68
2021/12/28 08:41:16;;;;;;;26.60;13.53;;;;;;;-4.68;100.00;100405.25;10543488;28;20219;-64
2021/12/28 08:46:21;;;;;;;29.27;14.30;;;;;;;-4.76;100.00;100396.38;10576434;28;20884;-70
2021/12/28 08:51:25;;;;;;;31.00;13.50;;;;;;;-4.47;100.00;100386.09;10538241;28;20224;-68
2021/12/28 08:56:30;;;;;;;33.63;14.97;;;;;;;-4.46;100.00;100397.06;10525710;28;20323;-67
2021/12/28 09:01:33;;;;;;;29.13;14.47;;;;;;;-4.49;100.00;100382.59;10502834;28;20223;-66
2021/12/28 09:06:36;;;;;;;30.77;14.20;;;;;;;-4.28;100.00;100383.63;10503976;28;20665;-66
2021/12/28 09:11:41;;;;;;;38.70;17.33;;;;;;;-4.15;100.00;100377.50;10545327;28;20310;-69
2021/12/28 09:16:45;;;;;;;30.07;14.90;;;;;;;-4.16;100.00;100370.69;10524494;28;20546;-67
2021/12/28 09:21:48;;;;;;;31.63;14.90;;;;;;;-4.19;100.00;100360.41;10513368;28;20234;-68
2021/12/28 09:26:53;;;;;;;30.63;13.07;;;;;;;-4.10;100.00;100355.78;10525830;28;20202;-66
2021/12/28 09:31:56;;;;;;;29.30;13.90;;;;;;;-3.86;100.00;100340.06;10543851;28;20211;-64
2021/12/28 09:36:59;;;;;;;35.37;15.17;;;;;;;-3.65;100.00;100335.09;10535714;28;20278;-69
2021/12/28 09:42:05;;;;;;;31.30;14.73;;;;;;;-3.65;100.00;100330.91;10555807;28;20233;-66
2021/12/28 09:47:08;;;;;;;29.47;14.03;;;;;;;-3.59;100.00;100332.84;10583016;28;20601;-68
2021/12/28 09:52:13;;;;;;;23.07;10.73;;;;;;;-3.52;100.00;100301.91;10543498;28;20297;-65
2021/12/28 09:57:19;;;;;;;45.83;19.03;;;;;;;-3.54;100.00;100293.34;10542718;28;20533;-67
2021/12/28 10:02:22;;;;;;;32.43;16.53;;;;;;;-3.48;100.00;100300.34;10543050;28;20286;-66
2021/12/28 10:07:29;;;;;;;38.87;17.77;;;;;;;-3.38;100.00;100307.56;10542557;28;20617;-69
2021/12/28 10:12:37;;;;;;;32.87;15.37;;;;;;;-3.32;100.00;100312.91;10542377;28;20272;-66
2021/12/28 10:17:43;;;;;;;40.17;17.07;;;;;;;-3.32;100.00;100317.97;10542207;28;20716;-69
2021/12/28 10:22:48;;;;;;;34.70;16.67;;;;;;;-3.26;100.00;100314.03;10542059;28;20234;-67
2021/12/28 10:27:57;;;;;;;37.73;17.70;;;;;;;-3.26;100.00;100306.41;10541660;28;20239;-69
2021/12/28 10:33:03;;;;;;;41.83;19.23;;;;;;;-3.24;100.00;100294.66;10542225;28;20230;-68
2021/12/28 10:38:09;;;;;;;31.30;16.97;;;;;;;-3.12;100.00;100281.66;10542847;28;20222;-66
2021/12/28 10:43:15;;;;;;;37.67;17.53;;;;;;;-3.09;100.00;100290.25;10544355;28;20318;-69
2021/12/28 10:48:21;;;;;;;37.13;17.67;;;;;;;-3.05;100.00;100281.09;10543782;28;20215;-64
2021/12/28 10:53:33;;;;;;;27.97;14.47;;;;;;;-2.94;100.00;100270.59;10543862;28;20302;-70
2021/12/28 10:58:41;;;;;;;33.23;17.60;;;;;;;-2.91;100.00;100278.34;10543556;28;20211;-69
2021/12/28 11:03:47;;;;;;;33.27;17.40;;;;;;;-2.76;100.00;100266.25;10543679;28;20318;-67
2021/12/28 11:08:52;;;;;;;37.37;17.47;;;;;;;-2.73;100.00;100253.72;10543224;28;20208;-65
2021/12/28 11:13:59;;;;;;;35.60;18.00;;;;;;;-2.69;100.00;100267.38;10543305;28;20310;-66
2021/12/28 11:19:05;;;;;;;36.53;18.53;;;;;;;-2.70;100.00;100266.53;10543047;28;20207;-68
2021/12/28 11:24:10;;;;;;;44.07;22.47;;;;;;;-2.71;100.00;100244.47;10543064;28;20361;-67
2021/12/28 11:29:17;;;;;;;35.70;16.33;;;;;;;-2.68;100.00;100229.38;10541956;28;20211;-66
2021/12/28 11:34:23;;;;;;;37.53;17.73;;;;;;;-2.57;100.00;100212.88;10542822;28;20260;-72
2021/12/28 11:39:29;;;;;;;37.60;18.83;;;;;;;-2.60;100.00;100205.13;10542227;28;20228;-68
2021/12/28 11:44:35;;;;;;;36.07;17.03;;;;;;;-2.62;100.00;100209.28;10542044;28;20218;-66
2021/12/28 11:49:41;;;;;;;31.83;16.57;;;;;;;-2.60;100.00;100191.56;10541970;28;20222;-64
2021/12/28 11:54:47;;;;;;;32.57;16.30;;;;;;;-2.53;100.00;100194.41;10541918;28;20252;-64
2021/12/28 11:59:54;;;;;;;31.97;16.40;;;;;;;-2.41;100.00;100171.16;10541807;28;20294;-65
2021/12/28 12:04:58;;;;;;;27.57;16.10;;;;;;;-2.38;100.00;100153.47;10541816;28;20219;-65
2021/12/28 12:10:34;;;;;;;41.23;17.03;;;;;;;-2.43;100.00;100155.84;10541634;28;20211;-69
2021/12/28 12:15:42;;;;;;;32.40;16.13;;;;;;;-2.45;100.00;100156.63;10541890;28;20216;-70
2021/12/28 12:20:49;;;;;;;31.47;14.77;;;;;;;-2.44;100.00;100138.88;10540416;28;20237;-67
2021/12/28 12:26:05;;;;;;;27.90;14.67;;;;;;;-2.44;100.00;100127.84;10541466;28;20591;-69
2021/12/28 12:31:22;;;;;;;31.87;13.90;;;;;;;-2.35;100.00;100126.50;10541188;28;20248;-68
2021/12/28 12:36:35;;;;;;;26.20;15.07;;;;;;;-2.33;100.00;100128.25;10541509;28;20238;-67
2021/12/28 12:41:47;;;;;;;36.00;16.03;;;;;;;-2.44;100.00;100135.47;10546310;28;20676;-68
2021/12/28 12:46:54;;;;;;;27.77;13.90;;;;;;;-2.40;100.00;100128.00;10549012;28;20234;-66
2021/12/28 12:52:12;;;;;;;27.60;13.80;;;;;;;-2.30;100.00;100133.44;10548575;28;20292;-66
2021/12/28 12:57:21;;;;;;;28.17;13.37;;;;;;;-2.45;100.00;100149.84;10536396;28;20347;-67
2021/12/28 13:02:29;;;;;;;24.17;13.60;;;;;;;-2.46;100.00;100148.13;10528203;28;20219;-71
2021/12/28 13:07:35;;;;;;;27.17;13.73;;;;;;;-2.49;100.00;100162.38;10548394;28;20306;-66
2021/12/28 13:12:39;;;;;;;30.13;15.00;;;;;;;-2.47;100.00;100148.91;10547630;28;20223;-68
2021/12/28 13:17:45;;;;;;;32.63;15.40;;;;;;;-2.41;100.00;100150.81;10547687;28;20220;-70
2021/12/28 13:22:54;;;;;;;25.13;12.67;;;;;;;-2.38;100.00;100148.38;10547539;28;20219;-68
2021/12/28 13:27:59;;;;;;;27.90;14.50;;;;;;;-2.47;100.00;100137.91;10547595;28;20302;-70
2021/12/28 13:33:05;;;;;;;27.27;13.53;;;;;;;-2.44;100.00;100143.97;10547332;28;20653;-67
2021/12/28 13:38:10;;;;;;;34.03;14.67;;;;;;;-2.42;100.00;100139.78;10546941;28;20219;-68
2021/12/28 13:43:18;;;;;;;25.73;12.87;;;;;;;-2.42;100.00;100134.69;10546181;28;20736;-69
2021/12/28 13:48:27;;;;;;;24.57;12.47;;;;;;;-2.33;100.00;100133.34;10191042;27;9999797;-67
2021/12/28 13:53:33;;;;;;;27.57;13.73;;;;;;;-2.43;100.00;100130.44;10530478;28;20330;-69
2021/12/28 13:58:38;;;;;;;33.30;15.40;;;;;;;-2.39;100.00;100119.59;10527679;28;20350;-67
2021/12/28 14:03:54;;;;;;;27.27;14.07;;;;;;;-2.49;100.00;100109.91;10525377;28;20671;-67
2021/12/28 14:09:01;;;;;;;26.53;12.60;;;;;;;-2.40;100.00;100081.44;10542426;28;20882;-68
2021/12/28 14:14:13;;;;;;;25.97;14.03;;;;;;;-2.50;100.00;100077.69;10538419;28;20295;-67
2021/12/28 14:19:18;;;;;;;25.37;10.90;;;;;;;-2.41;100.00;100072.06;10542179;28;20218;-71
2021/12/28 14:24:27;;;;;;;27.33;12.77;;;;;;;-2.26;100.00;100067.53;10541917;28;20219;-66
2021/12/28 14:29:32;;;;;;;21.30;10.60;;;;;;;-2.38;100.00;100077.25;10542462;28;20235;-65
2021/12/28 14:34:39;;;;;;;26.40;12.00;;;;;;;-2.30;100.00;100078.41;10541041;28;20223;-66
2021/12/28 14:39:44;;;;;;;25.60;12.70;;;;;;;-2.48;100.00;100080.28;10541354;28;20254;-68
2021/12/28 14:44:49;;;;;;;21.67;12.03;;;;;;;-2.55;100.00;100073.22;10540492;28;20215;-68
2021/12/28 14:49:55;;;;;;;25.33;12.50;;;;;;;-2.53;100.00;100082.66;10564048;28;20222;-65
2021/12/28 14:55:03;;;;;;;29.13;12.37;;;;;;;-2.43;100.00;100094.88;10553268;28;20310;-68
2021/12/28 15:00:12;;;;;;;48.63;22.00;;;;;;;-2.49;100.00;100088.72;10540245;28;20231;-68
2021/12/28 15:05:18;;;;;;;29.03;13.53;;;;;;;-2.52;100.00;100089.44;10539731;28;20544;-64
2021/12/28 15:10:21;;;;;;;28.07;13.60;;;;;;;-2.42;100.00;100096.59;10542535;28;20211;-71
2021/12/28 15:15:24;;;;;;;31.57;13.70;;;;;;;-2.57;100.00;100101.13;10543112;28;20227;-64
2021/12/28 15:20:32;;;;;;;27.47;14.00;;;;;;;-2.59;100.00;100115.44;10543868;28;20247;-64
2021/12/28 15:25:37;;;;;;;32.93;13.13;;;;;;;-2.49;100.00;100116.66;10542555;28;20661;-66
2021/12/28 15:30:43;;;;;;;27.40;13.77;;;;;;;-2.42;100.00;100104.22;10542947;28;20302;-65
2021/12/28 15:35:48;;;;;;;30.57;14.97;;;;;;;-2.37;100.00;100105.28;10542556;28;20356;-68
2021/12/28 15:40:53;;;;;;;33.00;14.93;;;;;;;-2.46;100.00;100101.53;10542247;28;20230;-68
2021/12/28 15:45:56;;;;;;;30.30;14.53;;;;;;;-2.37;100.00;100090.03;10542047;28;20231;-66
2021/12/28 15:51:01;;;;;;;23.50;11.87;;;;;;;-2.45;100.00;100086.34;10542402;28;20254;-65
2021/12/28 15:56:05;;;;;;;22.60;10.97;;;;;;;-2.49;100.00;100081.09;10541814;28;20247;-65
2021/12/28 16:01:08;;;;;;;26.57;13.03;;;;;;;-2.44;100.00;100074.50;10542013;28;20211;-68
2021/12/28 16:06:15;;;;;;;28.73;13.00;;;;;;;-2.45;100.00;100062.63;10538811;28;20244;-67
2021/12/28 16:11:20;;;;;;;24.87;12.00;;;;;;;-2.42;100.00;100050.88;10538932;28;20285;-66
2021/12/28 16:16:24;;;;;;;26.33;12.00;;;;;;;-2.27;100.00;100044.59;10545803;28;20318;-69
2021/12/28 16:21:29;;;;;;;23.63;12.30;;;;;;;-2.40;100.00;100040.78;10547293;28;20645;-64
2021/12/28 16:26:33;;;;;;;24.87;11.53;;;;;;;-2.43;100.00;100039.00;10547434;28;20234;-69
2021/12/28 16:31:36;;;;;;;26.60;12.00;;;;;;;-2.45;100.00;100020.28;10546948;28;20229;-67
2021/12/28 16:36:42;;;;;;;22.23;11.27;;;;;;;-2.51;100.00;100020.09;10546442;28;20227;-65
2021/12/28 16:41:46;;;;;;;24.53;11.63;;;;;;;-2.49;100.00;100017.59;10546454;28;20242;-67
2021/12/28 16:46:55;;;;;;;21.80;11.50;;;;;;;-2.53;100.00;100005.59;10232504;27;10000555;-67
2021/12/28 16:51:59;;;;;;;20.23;7.20;;;;;;;-2.47;100.00;100015.97;10587672;28;20221;-66
2021/12/28 16:57:04;;;;;;;28.77;12.00;;;;;;;-2.48;100.00;100010.03;10588158;28;20336;-69
2021/12/28 17:02:07;;;;;;;19.37;10.40;;;;;;;-2.45;100.00;100012.66;10587504;28;20219;-68
2021/12/28 17:07:12;;;;;;;22.17;9.10;;;;;;;-2.40;100.00;100011.16;10587725;28;20214;-69
2021/12/28 17:12:16;;;;;;;18.87;9.90;;;;;;;-2.43;100.00;100002.56;10587282;28;20232;-66
2021/12/28 17:17:19;;;;;;;25.40;11.37;;;;;;;-2.37;100.00;100006.19;10587252;28;20222;-67
2021/12/28 17:22:24;;;;;;;23.47;11.03;;;;;;;-2.42;100.00;100001.75;10587127;28;20214;-68
2021/12/28 17:27:27;;;;;;;22.97;10.07;;;;;;;-2.42;100.00;100012.75;10585755;27;20211;-69
2021/12/28 17:32:30;;;;;;;25.97;13.07;;;;;;;-2.45;100.00;100010.13;10586503;28;20244;-64
2021/12/28 17:37:35;;;;;;;25.77;11.83;;;;;;;-2.43;100.00;100002.56;10586332;28;20215;-66
2021/12/28 17:42:40;;;;;;;26.63;11.17;;;;;;;-2.45;100.00;100014.38;10581463;28;20246;-73
2021/12/28 17:47:46;;;;;;;22.33;11.60;;;;;;;-2.39;100.00;99987.50;10543925;28;20288;-68
2021/12/28 17:52:50;;;;;;;20.83;10.20;;;;;;;-2.48;100.00;99974.47;10543934;28;20219;-68
2021/12/28 17:57:54;;;;;;;25.73;11.13;;;;;;;-2.50;100.00;99973.53;10543621;28;20821;-64
2021/12/28 18:03:04;;;;;;;28.37;12.93;;;;;;;-2.49;100.00;99970.22;10543271;28;20782;-66
2021/12/28 18:08:10;;;;;;;22.83;11.47;;;;;;;-2.33;100.00;99985.97;10542397;28;20624;-70
2021/12/28 18:13:13;;;;;;;29.10;13.33;;;;;;;-2.43;100.00;99974.63;10542199;28;20310;-71
2021/12/28 18:18:20;;;;;;;25.27;12.00;;;;;;;-2.46;100.00;99967.75;10542756;28;20197;-67
2021/12/28 18:23:25;;;;;;;26.67;12.00;;;;;;;-2.43;100.00;99965.31;10542382;28;20176;-70
2021/12/28 18:28:28;;;;;;;28.43;12.77;;;;;;;-2.54;100.00;99963.22;10542022;28;20199;-68
2021/12/28 18:33:32;;;;;;;25.80;10.97;;;;;;;-2.52;100.00;99966.69;10541737;28;20568;-66
2021/12/28 18:38:37;;;;;;;22.77;11.60;;;;;;;-2.50;100.00;99965.03;10541576;28;20196;-69
2021/12/28 18:43:40;;;;;;;23.27;10.47;;;;;;;-2.45;100.00;99964.41;10554790;28;20199;-69
2021/12/28 18:48:43;;;;;;;25.77;10.57;;;;;;;-2.46;100.00;99964.34;10583392;28;20647;-68
2021/12/28 18:53:50;;;;;;;22.93;10.73;;;;;;;-2.38;100.00;99953.63;10583004;28;20210;-68
2021/12/28 18:58:54;;;;;;;26.00;12.07;;;;;;;-2.50;100.00;99962.50;10583280;28;20205;-71
2021/12/28 19:03:58;;;;;;;20.20;9.80;;;;;;;-2.40;100.00;99955.25;10582625;28;20194;-67
2021/12/28 19:09:05;;;;;;;23.47;11.33;;;;;;;-2.40;100.00;99969.66;10582838;28;20215;-68
2021/12/28 19:14:08;;;;;;;19.77;9.17;;;;;;;-2.30;100.00;99968.28;10582316;28;20222;-69
2021/12/28 19:19:12;;;;;;;26.00;11.43;;;;;;;-2.33;100.00;99958.91;10582073;28;20305;-69
2021/12/28 19:24:17;;;;;;;23.13;10.77;;;;;;;-2.40;100.00;99965.41;10582247;28;20306;-69
2021/12/28 19:29:20;;;;;;;23.67;11.00;;;;;;;-2.29;100.00;99949.66;10581982;28;20229;-69
2021/12/28 19:34:24;;;;;;;23.97;10.73;;;;;;;-2.35;100.00;99945.28;10581770;28;20297;-68
2021/12/28 19:39:29;;;;;;;30.17;13.23;;;;;;;-2.24;100.00;99943.94;10581786;28;20312;-68
2021/12/28 19:44:33;;;;;;;24.00;11.07;;;;;;;-2.23;100.00;99943.16;10561039;28;20219;-73
2021/12/28 19:49:37;;;;;;;23.17;11.63;;;;;;;-2.29;100.00;99936.97;10538933;28;20226;-67
2021/12/28 19:54:42;;;;;;;20.30;10.77;;;;;;;-2.31;100.00;99919.13;10539009;28;20243;-69
2021/12/28 19:59:46;;;;;;;23.03;10.87;;;;;;;-2.33;100.00;99913.16;10538986;28;20680;-73
2021/12/28 20:04:50;;;;;;;25.50;12.40;;;;;;;-2.16;100.00;99917.13;10539233;28;20223;-67
2021/12/28 20:09:55;;;;;;;29.80;11.83;;;;;;;-2.18;100.00;99931.44;10538836;28;20280;-70
2021/12/28 20:14:59;;;;;;;20.87;10.73;;;;;;;-1.99;100.00;99910.91;10538879;28;20234;-68
2021/12/28 20:20:04;;;;;;;25.53;10.50;;;;;;;-2.01;100.00;99910.00;10538656;28;20618;-68
2021/12/28 20:25:17;;;;;;;19.27;11.17;;;;;;;-2.11;100.00;99899.47;10538358;28;20219;-65
2021/12/28 20:30:23;;;;;;;25.00;11.27;;;;;;;-2.02;100.00;99894.69;10538529;28;20211;-67
2021/12/28 20:35:28;;;;;;;28.97;12.13;;;;;;;-2.03;100.00;99886.19;10538067;28;20219;-66
2021/12/28 20:40:34;;;;;;;29.33;11.57;;;;;;;-1.98;100.00;99883.78;10538034;28;20240;-67
2021/12/28 20:45:38;;;;;;;24.37;12.87;;;;;;;-1.98;100.00;99878.69;10567770;28;20219;-72
2021/12/28 20:50:41;;;;;;;26.47;12.27;;;;;;;-2.00;100.00;99872.72;10580088;28;20317;-67
2021/12/28 20:55:46;;;;;;;27.70;12.53;;;;;;;-1.96;100.00;99875.41;10580043;28;20222;-68
2021/12/28 21:00:50;;;;;;;29.13;13.17;;;;;;;-1.91;100.00;99866.25;10583490;28;20289;-67
2021/12/28 21:05:53;;;;;;;26.63;12.63;;;;;;;-2.06;100.00;99870.84;10587658;28;20225;-68
2021/12/28 21:11:00;;;;;;;27.20;11.67;;;;;;;-1.96;100.00;99865.25;10587654;28;20224;-66
2021/12/28 21:16:04;;;;;;;23.67;10.90;;;;;;;-1.97;100.00;99857.56;10587017;28;20279;-67
2021/12/28 21:21:08;;;;;;;22.63;11.93;;;;;;;-2.08;100.00;99859.78;10587114;28;20297;-69
2021/12/28 21:26:12;;;;;;;25.93;12.00;;;;;;;-2.06;100.00;99845.44;10586808;28;20388;-72
2021/12/28 21:31:17;;;;;;;27.40;12.17;;;;;;;-1.98;100.00;99845.66;10586518;28;20306;-68
2021/12/28 21:36:22;;;;;;;22.83;10.70;;;;;;;-1.95;100.00;99844.06;10586782;28;20450;-66
2021/12/28 21:41:27;;;;;;;29.17;13.60;;;;;;;-1.95;100.00;99843.22;10585970;27;20231;-67
2021/12/28 21:46:31;;;;;;;28.17;12.70;;;;;;;-1.97;100.00;99850.81;10548884;28;20245;-69
2021/12/28 21:51:34;;;;;;;23.10;11.40;;;;;;;-1.91;100.00;99848.44;10543863;28;20243;-66
2021/12/28 21:56:40;;;;;;;26.77;12.37;;;;;;;-2.08;100.00;99838.56;10543159;28;20249;-67
2021/12/28 22:01:43;;;;;;;25.00;11.83;;;;;;;-2.04;100.00;99820.06;10543453;28;20223;-66
2021/12/28 22:06:47;;;;;;;26.73;12.60;;;;;;;-2.05;100.00;99821.72;10542885;28;20211;-67
2021/12/28 22:11:52;;;;;;;23.07;11.23;;;;;;;-2.04;100.00;99804.81;10542323;28;20222;-67
2021/12/28 22:16:55;;;;;;;27.07;13.27;;;;;;;-1.98;100.00;99797.34;10542583;28;20964;-68
2021/12/28 22:21:59;;;;;;;29.57;11.60;;;;;;;-1.86;100.00;99800.28;10542261;28;20340;-71
2021/12/28 22:27:04;;;;;;;26.03;12.43;;;;;;;-1.90;100.00;99798.47;10542060;28;20207;-66
2021/12/28 22:32:17;;;;;;;29.80;12.37;;;;;;;-2.05;100.00;99809.03;10542048;28;20211;-70
2021/12/28 22:37:20;;;;;;;24.80;12.00;;;;;;;-2.01;100.00;99799.81;10541517;28;20377;-68
2021/12/28 22:42:25;;;;;;;26.70;11.20;;;;;;;-1.90;100.00;99801.88;10543741;28;20253;-65